Time;durP1;ratioP1;P1;durP2;ratioP2;P2;SDS_P1;SDS_P2;PMS_P1;PMS_P2;Temp;Humidity;BMP_temperature;BMP_pressure;BME280_temperature;BME280_humidity;BME280_pressure;Samples;Min_cycle;Max_cycle;Signal;HPM_P1;HPM_P2
2023/09/05 00:01:45;;;;;;;2.88;2.45;;;;;;;18.65;100.00;98190.47;5010834;28;20646;-59
2023/09/05 00:04:12;;;;;;;2.72;2.40;;;;;;;18.79;100.00;98176.72;5011363;28;20197;-59
2023/09/05 00:06:38;;;;;;;3.75;2.05;;;;;;;19.04;100.00;98192.31;5014635;28;20202;-58
2023/09/05 00:09:05;;;;;;;3.50;2.35;;;;;;;19.22;100.00;98184.28;5014678;28;20229;-58
2023/09/05 00:11:31;;;;;;;5.15;2.70;;;;;;;19.35;100.00;98216.13;5013928;28;20297;-58
2023/09/05 00:13:56;;;;;;;2.60;2.10;;;;;;;19.25;100.00;98212.84;5014328;28;20505;-58
2023/09/05 00:16:22;;;;;;;5.68;2.53;;;;;;;19.22;100.00;98221.84;5014506;28;20170;-58
2023/09/05 00:18:47;;;;;;;2.97;2.10;;;;;;;19.10;100.00;98209.19;5014533;28;20179;-58
2023/09/05 00:21:15;;;;;;;4.90;2.17;;;;;;;19.20;100.00;98220.34;5014409;28;20185;-58
2023/09/05 00:23:40;;;;;;;6.53;2.13;;;;;;;19.04;100.00;98210.66;5014423;28;20185;-58
2023/09/05 00:26:06;;;;;;;2.50;2.30;;;;;;;18.95;100.00;98179.34;5014361;28;20175;-58
2023/09/05 00:28:33;;;;;;;3.13;1.95;;;;;;;18.93;100.00;98192.63;5014314;28;20206;-58
2023/09/05 00:30:59;;;;;;;5.13;2.13;;;;;;;19.26;100.00;98206.59;5013828;28;20558;-58
2023/09/05 00:33:24;;;;;;;2.13;1.85;;;;;;;19.13;100.00;98177.41;5014220;28;20240;-58
2023/09/05 00:35:53;;;;;;;3.83;2.40;;;;;;;18.93;100.00;98171.66;5014189;28;20174;-58
2023/09/05 00:38:19;;;;;;;2.70;2.50;;;;;;;18.93;100.00;98204.91;5014109;28;20182;-58
2023/09/05 00:40:44;;;;;;;2.42;2.22;;;;;;;18.74;100.00;98194.72;5013994;28;20522;-58
2023/09/05 00:43:09;;;;;;;2.40;2.20;;;;;;;18.72;100.00;98207.19;5014138;28;20198;-58
2023/09/05 00:45:41;;;;;;;2.47;2.28;;;;;;;18.76;100.00;98211.13;5014023;28;20175;-58
2023/09/05 00:48:07;;;;;;;5.35;1.92;;;;;;;18.52;100.00;98190.06;5014082;28;20656;-58
2023/09/05 00:50:32;;;;;;;4.70;2.20;;;;;;;18.59;100.00;98198.97;5013958;28;20213;-58
2023/09/05 00:52:58;;;;;;;3.83;2.60;;;;;;;18.53;100.00;98176.81;5013785;28;20589;-58
2023/09/05 00:55:24;;;;;;;4.95;2.20;;;;;;;18.50;100.00;98173.69;5013907;28;20590;-58
2023/09/05 00:57:49;;;;;;;4.20;2.60;;;;;;;18.57;100.00;98185.19;5013851;28;20185;-58
2023/09/05 01:00:17;;;;;;;7.50;2.90;;;;;;;18.52;100.00;98183.03;5013751;28;20228;-58
2023/09/05 01:02:43;;;;;;;2.80;2.60;;;;;;;18.30;100.00;98138.25;5013745;28;20178;-58
2023/09/05 01:05:09;;;;;;;2.83;2.60;;;;;;;18.37;100.00;98137.47;5013664;28;20178;-58
2023/09/05 01:08:15;;;;;;;3.42;2.80;;;;;;;18.68;100.00;98148.19;5013592;28;20633;-58
2023/09/05 01:11:00;;;;;;;4.07;3.05;;;;;;;18.50;100.00;98131.78;5013508;28;20197;-58
2023/09/05 01:13:27;;;;;;;3.10;2.80;;;;;;;18.50;100.00;98122.13;5013435;28;20228;-58
2023/09/05 01:15:53;;;;;;;4.85;2.55;;;;;;;18.57;100.00;98128.34;5012439;28;20185;-58
2023/09/05 01:18:20;;;;;;;7.68;3.22;;;;;;;18.66;100.00;98152.78;5013436;28;20694;-58
2023/09/05 01:20:57;;;;;;;2.50;2.30;;;;;;;18.39;100.00;98150.41;5013339;28;20186;-58
2023/09/05 01:23:28;;;;;;;3.65;2.80;;;;;;;18.14;100.00;98146.06;5013403;28;20178;-58
2023/09/05 01:25:54;;;;;;;3.97;3.05;;;;;;;18.04;100.00;98124.41;5013299;28;20324;-58
2023/09/05 01:28:23;;;;;;;3.55;2.72;;;;;;;18.09;100.00;98136.06;5013253;28;20319;-58
2023/09/05 01:30:49;;;;;;;3.50;3.05;;;;;;;18.20;100.00;98132.31;5012778;28;20534;-58
2023/09/05 01:33:15;;;;;;;3.30;3.10;;;;;;;18.39;100.00;98148.63;5013127;28;20282;-57
2023/09/05 01:35:41;;;;;;;4.57;3.08;;;;;;;18.20;100.00;98119.22;5013044;28;20174;-58
2023/09/05 01:38:07;;;;;;;3.70;3.40;;;;;;;18.66;100.00;98158.03;5012975;28;20492;-57
2023/09/05 01:40:33;;;;;;;3.60;3.30;;;;;;;18.63;100.00;98163.56;5013256;28;20511;-58
2023/09/05 01:42:58;;;;;;;4.88;3.38;;;;;;;18.47;100.00;98134.72;5012922;28;20185;-58
2023/09/05 01:45:23;;;;;;;4.32;3.33;;;;;;;18.36;100.00;98116.69;5012657;28;20195;-58
2023/09/05 01:47:49;;;;;;;5.03;3.60;;;;;;;18.34;100.00;98108.16;5012883;28;20355;-58
2023/09/05 01:50:14;;;;;;;3.92;3.60;;;;;;;18.31;100.00;98121.56;5012802;28;20175;-58
2023/09/05 01:52:40;;;;;;;8.95;3.13;;;;;;;18.37;100.00;98147.94;5012682;28;20202;-58
2023/09/05 01:55:06;;;;;;;4.93;3.00;;;;;;;18.40;100.00;98154.66;5012990;28;20178;-58
2023/09/05 01:57:32;;;;;;;3.30;3.10;;;;;;;18.27;100.00;98133.31;5012318;28;20175;-58
2023/09/05 01:59:57;;;;;;;4.70;2.80;;;;;;;18.48;100.00;98133.75;5012550;28;20171;-57
2023/09/05 02:02:23;;;;;;;3.10;2.80;;;;;;;18.68;100.00;98148.19;5012263;28;20650;-58
2023/09/05 02:04:49;;;;;;;3.03;2.83;;;;;;;18.99;100.00;98178.88;5012410;28;20174;-58
2023/09/05 02:07:18;;;;;;;5.45;3.10;;;;;;;18.84;100.00;98142.97;5012444;28;20193;-58
2023/09/05 02:09:44;;;;;;;5.47;3.72;;;;;;;18.87;100.00;98155.72;5012362;28;20187;-58
2023/09/05 02:12:09;;;;;;;2.95;2.65;;;;;;;19.18;100.00;98168.03;5012367;28;20260;-58
2023/09/05 02:14:36;;;;;;;3.53;3.13;;;;;;;19.26;100.00;98162.84;5012371;28;20178;-58
2023/09/05 02:17:02;;;;;;;7.22;3.42;;;;;;;18.77;100.00;98128.88;5012303;28;20653;-58
2023/09/05 02:19:28;;;;;;;3.95;3.13;;;;;;;19.01;100.00;98181.31;5012263;28;20210;-58
2023/09/05 02:21:55;;;;;;;3.92;3.53;;;;;;;18.89;100.00;98187.88;5011937;28;20715;-58
2023/09/05 02:24:20;;;;;;;6.70;3.58;;;;;;;18.82;100.00;98164.09;5012118;28;20237;-58
2023/09/05 02:26:46;;;;;;;7.57;3.45;;;;;;;18.74;100.00;98163.25;5011910;28;20179;-58
2023/09/05 02:29:11;;;;;;;3.08;2.88;;;;;;;18.76;100.00;98153.47;5011995;28;20194;-58
2023/09/05 02:31:37;;;;;;;3.20;2.88;;;;;;;18.99;100.00;98150.00;5011910;28;20197;-58
2023/09/05 02:34:02;;;;;;;3.28;2.95;;;;;;;19.26;100.00;98177.75;5011755;28;20174;-58
2023/09/05 02:36:30;;;;;;;3.40;3.10;;;;;;;19.30;100.00;98185.13;5011987;28;20534;-58
2023/09/05 02:38:56;;;;;;;3.67;3.10;;;;;;;19.41;100.00;98207.59;5012230;28;20691;-58
2023/09/05 02:41:22;;;;;;;4.35;3.80;;;;;;;19.08;100.00;98158.69;5011812;28;20174;-58
2023/09/05 02:43:48;;;;;;;5.35;3.58;;;;;;;19.15;100.00;98201.66;5011779;28;20209;-58
2023/09/05 02:46:16;;;;;;;3.42;3.13;;;;;;;18.85;100.00;98163.78;5011756;28;20170;-58
2023/09/05 02:48:45;;;;;;;7.10;3.92;;;;;;;18.72;100.00;98155.56;5011797;28;20744;-58
2023/09/05 02:51:12;;;;;;;3.95;3.55;;;;;;;18.86;100.00;98154.09;5011606;28;20210;-58
2023/09/05 02:53:38;;;;;;;3.92;3.50;;;;;;;19.11;100.00;98197.72;5011638;28;20190;-59
2023/09/05 02:56:04;;;;;;;5.70;3.78;;;;;;;18.94;100.00;98193.47;5011592;28;20265;-58
2023/09/05 02:58:31;;;;;;;4.05;3.22;;;;;;;18.91;100.00;98204.25;5011683;28;20190;-58
2023/09/05 03:01:03;;;;;;;4.28;3.88;;;;;;;18.79;100.00;98209.00;5011263;28;20523;-58
2023/09/05 03:03:28;;;;;;;5.35;3.65;;;;;;;18.98;100.00;98213.94;5011558;28;20268;-58
2023/09/05 03:05:54;;;;;;;3.90;3.63;;;;;;;19.00;100.00;98198.06;5011469;28;20770;-58
2023/09/05 03:08:19;;;;;;;6.45;3.72;;;;;;;19.09;100.00;98170.84;5011384;28;20198;-58
2023/09/05 03:10:51;;;;;;;3.60;3.22;;;;;;;19.34;100.00;98190.84;5011629;28;20273;-58
2023/09/05 03:13:18;;;;;;;4.20;3.42;;;;;;;19.24;100.00;98200.72;5011382;28;20186;-58
2023/09/05 03:15:43;;;;;;;5.35;3.30;;;;;;;18.91;100.00;98184.13;5011255;28;20170;-59
2023/09/05 03:18:08;;;;;;;4.18;3.88;;;;;;;18.91;100.00;98191.97;5011642;28;20661;-58
2023/09/05 03:20:34;;;;;;;9.10;4.13;;;;;;;18.81;100.00;98188.69;5011309;28;20178;-58
2023/09/05 03:22:59;;;;;;;4.82;3.92;;;;;;;18.52;100.00;98166.50;5011211;28;20174;-58
2023/09/05 03:25:25;;;;;;;6.18;4.20;;;;;;;18.39;100.00;98150.41;5010977;28;20259;-58
2023/09/05 03:27:50;;;;;;;5.47;4.22;;;;;;;18.35;100.00;98183.13;5011133;28;20204;-58
2023/09/05 03:30:16;;;;;;;5.38;3.88;;;;;;;18.53;100.00;98204.84;5011100;28;20170;-58
2023/09/05 03:32:41;;;;;;;6.63;4.57;;;;;;;18.42;100.00;98181.53;5011048;28;20213;-58
2023/09/05 03:35:07;;;;;;;9.48;4.05;;;;;;;18.30;100.00;98182.78;5011106;28;20206;-58
2023/09/05 03:37:33;;;;;;;6.03;4.30;;;;;;;18.31;100.00;98189.66;5028156;28;20217;-58
2023/09/05 03:39:58;;;;;;;4.68;4.28;;;;;;;18.57;100.00;98196.50;5032517;28;20703;-58
2023/09/05 03:42:24;;;;;;;5.07;4.60;;;;;;;18.54;100.00;98209.09;5034878;28;20216;-58
2023/09/05 03:44:49;;;;;;;5.65;4.50;;;;;;;18.17;100.00;98182.38;5034831;28;20280;-58
2023/09/05 03:47:14;;;;;;;5.30;4.78;;;;;;;17.93;100.00;98170.03;5034766;28;20232;-58
2023/09/05 03:49:40;;;;;;;8.00;5.15;;;;;;;18.14;100.00;98211.53;5034845;28;20572;-58
2023/09/05 03:52:05;;;;;;;5.03;4.63;;;;;;;18.13;100.00;98202.03;5034833;28;20209;-58
2023/09/05 03:54:31;;;;;;;5.65;5.10;;;;;;;18.00;100.00;98191.97;5034707;28;20189;-58
2023/09/05 03:56:56;;;;;;;6.38;5.60;;;;;;;18.09;100.00;98216.41;5034717;28;20188;-58
2023/09/05 03:59:22;;;;;;;5.88;5.05;;;;;;;18.08;100.00;98230.47;5034719;28;20209;-58
2023/09/05 04:01:49;;;;;;;6.03;5.38;;;;;;;18.05;100.00;98234.22;5034784;28;20656;-58
2023/09/05 04:04:15;;;;;;;6.47;5.32;;;;;;;17.85;100.00;98209.22;5034619;28;20190;-58
2023/09/05 04:06:40;;;;;;;6.03;5.43;;;;;;;17.94;100.00;98203.06;5034603;28;20185;-58
2023/09/05 04:09:05;;;;;;;6.28;5.20;;;;;;;17.91;100.00;98208.63;5021749;28;20559;-58
2023/09/05 04:11:31;;;;;;;7.97;6.28;;;;;;;17.93;100.00;98211.06;5017382;28;20357;-58
2023/09/05 04:13:56;;;;;;;9.95;6.28;;;;;;;17.87;100.00;98209.91;5017023;28;20174;-58
2023/09/05 04:16:21;;;;;;;5.60;5.07;;;;;;;17.81;100.00;98201.84;5017586;28;20178;-58
2023/09/05 04:18:47;;;;;;;10.18;5.82;;;;;;;17.67;100.00;98195.38;5017047;28;20278;-58
2023/09/05 04:21:12;;;;;;;7.15;6.35;;;;;;;17.64;100.00;98190.47;5017137;28;20240;-58
2023/09/05 04:23:38;;;;;;;7.07;5.95;;;;;;;17.83;100.00;98205.97;5017244;28;20233;-58
2023/09/05 04:26:04;;;;;;;9.82;5.15;;;;;;;17.87;100.00;98190.75;5034263;28;20664;-58
2023/09/05 04:28:31;;;;;;;6.55;5.13;;;;;;;18.12;100.00;98216.09;5034526;28;20185;-58
2023/09/05 04:31:01;;;;;;;6.97;5.75;;;;;;;18.00;100.00;98217.31;5034329;28;20684;-58
2023/09/05 04:33:27;;;;;;;11.57;6.10;;;;;;;17.70;100.00;98183.78;5034481;28;20546;-58
2023/09/05 04:35:52;;;;;;;6.53;5.57;;;;;;;17.92;100.00;98219.91;5034339;28;20194;-57
2023/09/05 04:38:18;;;;;;;8.85;5.60;;;;;;;17.81;100.00;98204.47;5034337;28;20617;-58
2023/09/05 04:40:43;;;;;;;7.13;5.63;;;;;;;17.86;100.00;98196.97;5034340;28;20194;-58
2023/09/05 04:43:09;;;;;;;7.20;5.85;;;;;;;17.92;100.00;98217.28;5014325;28;20198;-58
2023/09/05 04:45:34;;;;;;;6.45;5.13;;;;;;;17.72;100.00;98200.97;5014404;28;20186;-58
2023/09/05 04:48:00;;;;;;;8.55;5.68;;;;;;;17.73;100.00;98193.97;5014512;28;20187;-58
2023/09/05 04:50:25;;;;;;;6.28;5.68;;;;;;;17.81;100.00;98191.38;5013710;28;20265;-58
2023/09/05 04:52:51;;;;;;;6.43;5.72;;;;;;;17.89;100.00;98210.56;5011295;28;20214;-58
2023/09/05 04:55:16;;;;;;;5.55;5.15;;;;;;;17.79;100.00;98188.09;5011350;28;20229;-58
2023/09/05 04:57:42;;;;;;;9.60;6.40;;;;;;;17.71;100.00;98195.88;4996266;28;20179;-58
2023/09/05 05:00:08;;;;;;;8.63;6.18;;;;;;;17.63;100.00;98193.22;4991634;28;20281;-58
2023/09/05 05:02:34;;;;;;;7.75;6.93;;;;;;;17.67;100.00;98215.50;4991579;28;20232;-58
2023/09/05 05:05:00;;;;;;;6.68;6.18;;;;;;;17.71;100.00;98195.88;4991536;28;20184;-58
2023/09/05 05:07:26;;;;;;;7.38;6.20;;;;;;;17.67;100.00;98205.03;4991572;28;20183;-58
2023/09/05 05:09:51;;;;;;;7.35;6.57;;;;;;;17.76;100.00;98214.56;4991432;28;20204;-58
2023/09/05 05:12:17;;;;;;;7.30;6.47;;;;;;;17.71;100.00;98186.25;4991303;28;20784;-58
2023/09/05 05:14:42;;;;;;;7.18;6.20;;;;;;;17.79;100.00;98178.44;5007392;28;20661;-58
2023/09/05 05:17:08;;;;;;;7.28;6.65;;;;;;;17.80;100.00;98202.81;5013435;28;20174;-58
2023/09/05 05:19:33;;;;;;;6.88;6.00;;;;;;;17.94;100.00;98217.94;5013385;28;20269;-58
2023/09/05 05:21:59;;;;;;;8.77;6.18;;;;;;;17.98;100.00;98214.88;5013400;28;20182;-58
2023/09/05 05:24:25;;;;;;;9.23;6.10;;;;;;;17.83;100.00;98178.97;5013009;28;20205;-58
2023/09/05 05:26:51;;;;;;;8.10;5.65;;;;;;;17.95;100.00;98193.44;5012967;28;20205;-58
2023/09/05 05:29:16;;;;;;;7.80;6.63;;;;;;;18.02;100.00;98203.09;5013171;28;20183;-58
2023/09/05 05:31:42;;;;;;;7.13;6.15;;;;;;;18.14;100.00;98219.38;5013116;28;20214;-58
2023/09/05 05:34:08;;;;;;;11.90;6.10;;;;;;;17.91;100.00;98202.56;5012809;28;20186;-58
2023/09/05 05:36:34;;;;;;;6.57;5.75;;;;;;;18.15;100.00;98223.63;5013175;28;20265;-58
2023/09/05 05:39:00;;;;;;;6.90;6.10;;;;;;;18.10;100.00;98208.41;5012887;28;20178;-58
2023/09/05 05:41:28;;;;;;;6.72;5.95;;;;;;;18.06;100.00;98214.91;5013367;28;20545;-58
2023/09/05 05:43:57;;;;;;;7.30;6.28;;;;;;;17.91;100.00;98189.47;5015437;28;20192;-58
2023/09/05 05:46:22;;;;;;;7.18;6.47;;;;;;;17.90;100.00;98191.25;5021393;28;20197;-58
2023/09/05 05:48:48;;;;;;;8.00;6.13;;;;;;;17.91;100.00;98197.34;5012792;28;20288;-58
2023/09/05 05:51:14;;;;;;;7.50;6.70;;;;;;;17.83;100.00;98186.84;5012880;28;20265;-58
2023/09/05 05:53:40;;;;;;;6.57;5.95;;;;;;;18.07;100.00;98213.94;5012618;28;20288;-58
2023/09/05 05:56:08;;;;;;;6.35;5.65;;;;;;;18.11;100.00;98219.69;5012703;28;20195;-58
2023/09/05 05:58:34;;;;;;;7.93;6.10;;;;;;;18.12;100.00;98203.00;5012499;28;20247;-59
2023/09/05 06:01:00;;;;;;;7.05;6.40;;;;;;;18.09;100.00;98191.06;5012224;28;20729;-59
2023/09/05 06:03:25;;;;;;;11.35;6.15;;;;;;;18.20;100.00;98209.06;5012050;28;20257;-59
2023/09/05 06:05:51;;;;;;;6.80;6.18;;;;;;;18.14;100.00;98198.44;5012451;28;20174;-59
2023/09/05 06:08:17;;;;;;;6.60;6.00;;;;;;;18.15;100.00;98237.56;5012420;28;20565;-56
2023/09/05 06:10:43;;;;;;;6.55;5.97;;;;;;;17.89;100.00;98207.16;5012144;28;20189;-59
2023/09/05 06:13:09;;;;;;;9.18;6.72;;;;;;;17.99;100.00;98205.22;5012225;28;20216;-57
2023/09/05 06:15:35;;;;;;;7.20;6.10;;;;;;;17.97;100.00;98207.19;5011889;28;20647;-57
2023/09/05 06:18:01;;;;;;;6.40;5.90;;;;;;;18.20;100.00;98244.94;5012172;28;20179;-57
2023/09/05 06:20:28;;;;;;;7.93;5.97;;;;;;;18.15;100.00;98237.56;5011876;28;20608;-58
2023/09/05 06:22:54;;;;;;;7.15;6.30;;;;;;;18.23;100.00;98249.84;5012025;28;20182;-59
2023/09/05 06:25:19;;;;;;;7.47;6.38;;;;;;;18.17;100.00;98256.56;5012114;28;20249;-58
2023/09/05 06:27:44;;;;;;;6.70;5.88;;;;;;;18.01;100.00;98239.94;5012110;28;20191;-58
2023/09/05 06:30:11;;;;;;;7.72;6.72;;;;;;;17.92;100.00;98233.00;5012004;28;20257;-58
2023/09/05 06:32:36;;;;;;;8.60;6.45;;;;;;;18.29;100.00;98270.19;5011015;28;20202;-58
2023/09/05 06:35:02;;;;;;;7.53;6.07;;;;;;;18.36;100.00;98256.34;5012046;28;20701;-57
2023/09/05 06:37:31;;;;;;;6.88;6.28;;;;;;;18.34;100.00;98241.75;5012113;28;20181;-58
2023/09/05 06:39:56;;;;;;;7.22;6.63;;;;;;;18.21;100.00;98246.56;5011753;28;20637;-57
2023/09/05 06:42:23;;;;;;;7.65;5.90;;;;;;;18.44;100.00;98303.56;5012103;28;20196;-58
2023/09/05 06:44:48;;;;;;;6.53;5.93;;;;;;;18.57;100.00;98310.97;5011579;28;20545;-58
2023/09/05 06:47:14;;;;;;;7.55;6.43;;;;;;;18.69;100.00;98309.72;5011897;28;20170;-58
2023/09/05 06:49:39;;;;;;;6.47;5.82;;;;;;;18.48;100.00;98294.38;5011588;28;20554;-57
2023/09/05 06:52:05;;;;;;;8.32;6.47;;;;;;;18.36;100.00;98286.97;5010206;28;20202;-58
2023/09/05 06:54:31;;;;;;;9.82;6.68;;;;;;;18.14;100.00;98277.00;5011337;28;20186;-58
2023/09/05 06:56:56;;;;;;;8.05;6.90;;;;;;;18.45;100.00;98317.47;5011675;28;20178;-58
2023/09/05 06:59:22;;;;;;;8.70;6.68;;;;;;;18.31;100.00;98283.97;5011212;28;20237;-58
2023/09/05 07:01:47;;;;;;;8.30;7.00;;;;;;;18.27;100.00;98314.91;5010499;28;20258;-58
2023/09/05 07:04:13;;;;;;;7.15;6.22;;;;;;;18.18;100.00;98304.53;5011313;28;20274;-58
2023/09/05 07:06:41;;;;;;;7.22;6.53;;;;;;;18.12;100.00;98300.72;5011674;28;20213;-58
2023/09/05 07:09:08;;;;;;;8.05;6.55;;;;;;;18.01;100.00;98280.00;5011111;28;20197;-57
2023/09/05 07:11:33;;;;;;;9.05;7.32;;;;;;;18.29;100.00;98322.56;5011153;28;20716;-57
2023/09/05 07:13:59;;;;;;;9.38;7.05;;;;;;;18.29;100.00;98309.47;5027772;28;20277;-58
2023/09/05 07:16:24;;;;;;;8.05;7.20;;;;;;;18.41;100.00;98306.47;5028723;28;20213;-58
2023/09/05 07:18:50;;;;;;;8.20;6.68;;;;;;;18.66;100.00;98336.25;5028399;28;20259;-57
2023/09/05 07:21:16;;;;;;;7.20;6.60;;;;;;;18.75;100.00;98348.41;5028632;28;20273;-58
2023/09/05 07:23:41;;;;;;;7.63;6.85;;;;;;;18.78;100.00;98350.72;5028587;28;20651;-58
2023/09/05 07:26:07;;;;;;;9.15;7.32;;;;;;;18.67;100.00;98335.25;5028695;28;20243;-57
2023/09/05 07:28:34;;;;;;;7.90;7.20;;;;;;;18.93;100.00;98360.44;5028607;28;20244;-58
2023/09/05 07:31:00;;;;;;;8.43;7.63;;;;;;;18.85;100.00;98341.22;5028619;28;20181;-57
2023/09/05 07:33:26;;;;;;;9.57;8.60;;;;;;;18.95;100.00;98349.81;5028541;28;20197;-57
2023/09/05 07:35:51;;;;;;;9.30;8.20;;;;;;;19.19;100.00;98360.38;5028590;28;20189;-58
2023/09/05 07:38:20;;;;;;;11.27;8.07;;;;;;;19.21;100.00;98338.28;5028518;28;20245;-57
2023/09/05 07:40:47;;;;;;;13.57;9.20;;;;;;;19.28;100.00;98349.75;5028443;28;20242;-58
2023/09/05 07:43:13;;;;;;;8.98;7.05;;;;;;;19.35;100.00;98360.44;5028345;28;20522;-57
2023/09/05 07:45:38;;;;;;;8.98;6.43;;;;;;;19.38;100.00;98349.63;5014289;28;20185;-58
2023/09/05 07:48:04;;;;;;;7.45;6.80;;;;;;;19.43;100.00;98323.72;5010971;28;20282;-58
2023/09/05 07:50:29;;;;;;;8.77;6.65;;;;;;;19.54;100.00;98342.59;5011070;28;20660;-58
2023/09/05 07:52:55;;;;;;;9.20;6.55;;;;;;;19.51;100.00;98326.34;5011060;28;20205;-58
2023/09/05 07:55:20;;;;;;;8.43;6.78;;;;;;;19.51;100.00;98321.09;5011094;28;20614;-58
2023/09/05 07:57:46;;;;;;;9.00;6.40;;;;;;;19.77;100.00;98342.78;5010992;28;20174;-58
2023/09/05 08:00:15;;;;;;;8.98;6.22;;;;;;;19.70;100.00;98313.72;5011024;28;20171;-58
2023/09/05 08:02:42;;;;;;;9.13;7.07;;;;;;;19.84;100.00;98343.75;5011192;28;20640;-55
2023/09/05 08:05:07;;;;;;;9.27;6.00;;;;;;;19.96;100.00;98329.31;5009545;28;20175;-57
2023/09/05 08:07:33;;;;;;;6.40;5.78;;;;;;;20.06;100.00;98324.72;5010669;28;20211;-59
2023/09/05 08:10:00;;;;;;;7.13;6.53;;;;;;;20.31;100.00;98339.47;5010758;28;20626;-58
2023/09/05 08:12:26;;;;;;;8.50;7.25;;;;;;;20.25;100.00;98316.50;5010575;28;20230;-57
2023/09/05 08:14:51;;;;;;;9.57;6.53;;;;;;;20.32;100.00;98309.56;5010312;28;20171;-57
2023/09/05 08:17:17;;;;;;;7.93;6.30;;;;;;;20.50;100.00;98324.16;5010509;28;20676;-56
2023/09/05 08:19:44;;;;;;;8.48;6.05;;;;;;;20.59;100.00;98314.44;5010665;28;20266;-57
2023/09/05 08:22:10;;;;;;;7.63;6.50;;;;;;;20.84;100.00;98350.97;5010838;28;20213;-57
2023/09/05 08:24:35;;;;;;;6.10;5.57;;;;;;;20.88;100.00;98327.78;5027992;28;20664;-57
2023/09/05 08:27:02;;;;;;;8.73;5.80;;;;;;;20.90;100.00;98318.78;5031735;28;20182;-57
2023/09/05 08:29:27;;;;;;;7.80;6.22;;;;;;;21.03;100.00;98318.22;5031801;28;20237;-56
2023/09/05 08:31:54;;;;;;;6.60;6.00;;;;;;;21.25;100.00;98339.31;5031676;28;20205;-56
2023/09/05 08:34:19;;;;;;;6.90;6.20;;;;;;;21.43;100.00;98349.53;5031689;28;20186;-57
2023/09/05 08:36:45;;;;;;;6.78;6.18;;;;;;;21.59;100.00;98359.97;5011973;28;20277;-56
2023/09/05 08:39:10;;;;;;;10.68;7.05;;;;;;;21.70;100.00;98359.59;5011741;28;20270;-56
2023/09/05 08:41:36;;;;;;;10.52;6.18;;;;;;;21.67;100.00;98328.34;5011656;28;20715;-57
2023/09/05 08:44:02;;;;;;;6.38;5.75;;;;;;;21.85;100.00;98347.31;5011794;28;20225;-57
2023/09/05 08:46:28;;;;;;;6.70;5.90;;;;;;;21.87;100.00;98332.16;5011689;28;20195;-57
2023/09/05 08:48:53;;;;;;;6.47;5.93;;;;;;;22.13;100.00;98364.19;5011731;28;20179;-55
2023/09/05 08:51:20;;;;;;;5.95;5.47;;;;;;;22.08;100.00;98340.22;5011458;28;20280;-56
2023/09/05 08:53:59;;;;;;;10.55;5.85;;;;;;;22.28;100.00;98351.88;5011581;28;20270;-57
2023/09/05 08:56:25;;;;;;;6.07;5.50;;;;;;;22.29;100.00;98353.50;5011360;28;20617;-57
2023/09/05 08:58:55;;;;;;;6.35;5.82;;;;;;;22.26;100.00;98332.78;5011480;28;20179;-57
2023/09/05 09:01:21;;;;;;;6.32;5.72;;;;;;;22.18;100.00;98319.66;5011323;28;20272;-56
2023/09/05 09:03:47;;;;;;;6.65;5.85;;;;;;;22.29;100.00;98341.16;5011253;28;20229;-55
2023/09/05 09:06:12;;;;;;;6.10;5.50;;;;;;;22.54;100.00;98374.22;5011049;28;20186;-56
2023/09/05 09:08:46;;;;;;;6.18;5.68;;;;;;;22.41;100.00;98367.88;5013030;28;20189;-56
2023/09/05 09:11:12;;;;;;;6.45;5.85;;;;;;;22.21;100.00;98343.03;5030607;28;20687;-56
2023/09/05 09:13:38;;;;;;;6.85;5.90;;;;;;;22.27;100.00;98366.84;5030881;28;20196;-56
2023/09/05 09:16:05;;;;;;;7.03;6.38;;;;;;;22.02;100.00;98343.56;5030832;28;20213;-56
2023/09/05 09:18:31;;;;;;;7.35;6.30;;;;;;;21.92;100.00;98335.06;5030783;28;20181;-55
2023/09/05 09:21:00;;;;;;;6.68;5.93;;;;;;;22.10;100.00;98372.47;5030672;28;20193;-56
2023/09/05 09:23:27;;;;;;;11.10;6.75;;;;;;;21.97;100.00;98366.97;5030693;28;20186;-56
2023/09/05 09:25:54;;;;;;;10.68;6.55;;;;;;;21.76;100.00;98341.31;5030633;28;20281;-56
2023/09/05 09:28:32;;;;;;;7.32;5.75;;;;;;;21.80;100.00;98347.03;5030640;28;20177;-56
2023/09/05 09:31:02;;;;;;;6.90;6.25;;;;;;;22.03;100.00;98374.97;5030597;28;20686;-56
2023/09/05 09:33:30;;;;;;;8.05;7.07;;;;;;;22.08;100.00;98387.66;5030366;28;20206;-56
2023/09/05 09:36:16;;;;;;;8.60;6.93;;;;;;;22.13;100.00;98394.00;5030419;28;20237;-56
2023/09/05 09:38:43;;;;;;;7.78;6.82;;;;;;;22.24;100.00;98393.59;5029191;28;20186;-56
2023/09/05 09:41:11;;;;;;;7.32;6.63;;;;;;;22.16;100.00;98369.13;5029075;28;20632;-56
2023/09/05 09:43:38;;;;;;;7.50;6.28;;;;;;;22.17;100.00;98363.69;5012939;28;20171;-56
2023/09/05 09:46:08;;;;;;;8.20;7.05;;;;;;;22.21;100.00;98369.41;5021727;28;20186;-57
2023/09/05 09:48:35;;;;;;;6.75;5.65;;;;;;;22.13;100.00;98380.00;5014468;28;20547;-57
2023/09/05 09:51:04;;;;;;;8.57;5.75;;;;;;;22.31;100.00;98409.53;5012752;28;20182;-57
2023/09/05 09:53:34;;;;;;;6.72;5.70;;;;;;;22.25;100.00;98421.59;5012707;28;20524;-57
2023/09/05 09:56:02;;;;;;;6.60;5.93;;;;;;;22.27;100.00;98418.78;5012415;28;20567;-56
2023/09/05 09:58:29;;;;;;;6.78;5.85;;;;;;;22.26;100.00;98391.59;5012625;28;20196;-56
2023/09/05 10:00:56;;;;;;;6.32;5.80;;;;;;;22.24;100.00;98395.41;5029724;28;20189;-57
2023/09/05 10:03:24;;;;;;;6.28;5.68;;;;;;;22.31;100.00;98399.78;5029902;28;20194;-56
2023/09/05 10:05:51;;;;;;;6.57;6.03;;;;;;;22.45;100.00;98416.66;5029775;28;20194;-56
2023/09/05 10:08:17;;;;;;;6.40;5.80;;;;;;;22.43;100.00;98402.81;5029728;28;20186;-56
2023/09/05 10:10:43;;;;;;;8.15;6.30;;;;;;;22.42;100.00;98390.59;5029602;28;20194;-57
2023/09/05 10:13:09;;;;;;;5.95;5.43;;;;;;;22.70;100.00;98423.34;5029666;28;20212;-57
2023/09/05 10:15:42;;;;;;;6.63;5.93;;;;;;;22.52;100.00;98407.03;5029735;28;20309;-57
2023/09/05 10:18:09;;;;;;;7.68;6.05;;;;;;;22.46;100.00;98398.03;5029800;28;20180;-57
2023/09/05 10:20:37;;;;;;;10.20;6.43;;;;;;;22.61;100.00;98416.53;5032824;28;20202;-57
2023/09/05 10:23:06;;;;;;;9.48;6.00;;;;;;;22.81;100.00;98433.44;5049476;28;20185;-57
2023/09/05 10:25:34;;;;;;;7.15;6.43;;;;;;;22.66;100.00;98419.44;5049400;28;20625;-57
2023/09/05 10:28:00;;;;;;;8.48;6.80;;;;;;;22.53;100.00;98435.03;5049426;28;20356;-57
2023/09/05 10:30:27;;;;;;;7.45;6.22;;;;;;;22.64;100.00;98431.97;5049509;28;20268;-57
2023/09/05 10:32:53;;;;;;;9.93;6.32;;;;;;;22.58;100.00;98408.94;5032930;28;20214;-57
2023/09/05 10:35:20;;;;;;;8.82;6.82;;;;;;;22.68;100.00;98423.50;5031917;28;20231;-57
2023/09/05 10:37:45;;;;;;;9.38;6.28;;;;;;;22.77;100.00;98443.53;5031736;28;20181;-57
2023/09/05 10:40:11;;;;;;;8.75;6.30;;;;;;;22.67;100.00;98415.78;5031824;28;20178;-57
2023/09/05 10:42:54;;;;;;;8.55;6.13;;;;;;;22.87;100.00;98438.00;5031666;28;20178;-57
2023/09/05 10:45:22;;;;;;;10.30;6.80;;;;;;;22.88;100.00;98437.00;5031742;28;20173;-56
2023/09/05 10:47:49;;;;;;;7.43;6.82;;;;;;;22.76;100.00;98414.69;5031565;28;20170;-56
2023/09/05 10:50:19;;;;;;;7.03;6.32;;;;;;;22.92;100.00;98443.56;5031576;28;20178;-57
2023/09/05 10:53:07;;;;;;;8.40;6.47;;;;;;;22.72;100.00;98424.00;5031460;28;20569;-56
2023/09/05 10:55:39;;;;;;;7.22;6.40;;;;;;;22.83;100.00;98448.09;5031493;28;20182;-56
2023/09/05 10:58:40;;;;;;;8.75;6.55;;;;;;;22.72;100.00;98442.47;5029139;28;20190;-56
2023/09/05 11:01:43;;;;;;;10.98;6.97;;;;;;;22.57;100.00;98438.97;5030720;28;20185;-56
2023/09/05 11:04:17;;;;;;;7.45;6.70;;;;;;;22.48;100.00;98414.50;4989199;28;20221;-57
2023/09/05 11:07:02;;;;;;;7.32;6.38;;;;;;;22.66;100.00;98414.97;4989456;28;20702;-56
2023/09/05 11:09:28;;;;;;;12.32;8.20;;;;;;;22.93;100.00;98435.47;4989430;28;20600;-57
2023/09/05 11:11:55;;;;;;;7.50;6.80;;;;;;;22.98;100.00;98434.91;4989044;28;20219;-57
2023/09/05 11:14:33;;;;;;;7.78;7.00;;;;;;;22.81;100.00;98405.25;4989325;28;20282;-57
2023/09/05 11:17:00;;;;;;;8.90;6.60;;;;;;;22.83;100.00;98407.69;4989241;28;20179;-57
2023/09/05 11:19:45;;;;;;;8.02;7.22;;;;;;;23.02;100.00;98449.41;4989131;28;20325;-57
2023/09/05 11:22:22;;;;;;;8.60;6.55;;;;;;;22.98;100.00;98448.09;4989371;28;20194;-56
2023/09/05 11:24:54;;;;;;;8.38;6.25;;;;;;;22.77;100.00;98403.97;4989108;28;20308;-56